Time;durP1;ratioP1;P1;durP2;ratioP2;P2;SDS_P1;SDS_P2;PMS_P1;PMS_P2;Temp;Humidity;BMP_temperature;BMP_pressure;BME280_temperature;BME280_humidity;BME280_pressure;Samples;Min_cycle;Max_cycle;Signal;HPM_P1;HPM_P2
2021/04/24 00:00:13;;;;;;;5.75;2.60;;;14.20;99.90;;;;;;6339573;22;20007;-82
2021/04/24 00:02:41;;;;;;;8.77;2.90;;;14.20;99.90;;;;;;6339250;22;20022;-82
2021/04/24 00:05:10;;;;;;;3.95;2.40;;;14.20;99.90;;;;;;6339288;22;20051;-82
2021/04/24 00:07:35;;;;;;;6.38;2.85;;;14.20;99.90;;;;;;6339632;22;20025;-82
2021/04/24 00:10:02;;;;;;;6.38;2.60;;;14.10;99.90;;;;;;6339205;22;20421;-80
2021/04/24 00:12:28;;;;;;;7.65;2.88;;;14.10;99.90;;;;;;6338919;22;19998;-82
2021/04/24 00:14:54;;;;;;;5.53;2.50;;;14.00;99.90;;;;;;6339203;22;20037;-82
2021/04/24 00:17:20;;;;;;;6.75;2.55;;;14.00;99.90;;;;;;6339287;22;20306;-81
2021/04/24 00:19:46;;;;;;;5.93;2.60;;;14.00;99.90;;;;;;6339120;22;20010;-82
2021/04/24 00:22:12;;;;;;;7.30;2.90;;;14.00;99.90;;;;;;6311485;22;20011;-82
2021/04/24 00:24:38;;;;;;;5.72;2.33;;;13.90;99.90;;;;;;6339031;22;19995;-82
2021/04/24 00:27:05;;;;;;;5.93;2.47;;;13.80;99.90;;;;;;6339041;22;20328;-82
2021/04/24 00:29:33;;;;;;;6.82;2.42;;;13.60;99.90;;;;;;6339069;22;20006;-81
2021/04/24 00:31:59;;;;;;;6.80;2.88;;;13.40;99.90;;;;;;6339196;22;20358;-82
2021/04/24 00:34:25;;;;;;;5.90;2.53;;;13.30;99.90;;;;;;6338881;22;20061;-82
2021/04/24 00:36:51;;;;;;;6.03;3.55;;;13.10;99.90;;;;;;6339023;22;20030;-81
2021/04/24 00:39:17;;;;;;;9.32;2.97;;;13.00;99.90;;;;;;6339062;22;20333;-82
2021/04/24 00:41:43;;;;;;;4.50;3.25;;;13.00;99.90;;;;;;6338903;22;20022;-82
2021/04/24 00:44:10;;;;;;;5.30;3.22;;;13.00;99.90;;;;;;6339184;22;20002;-82
2021/04/24 00:46:36;;;;;;;6.90;2.97;;;12.90;99.90;;;;;;6339119;22;20456;-82
2021/04/24 00:49:02;;;;;;;4.78;2.70;;;12.90;99.90;;;;;;6338838;22;20078;-81
2021/04/24 00:51:28;;;;;;;5.72;2.42;;;12.90;99.90;;;;;;6338787;22;20014;-82
2021/04/24 00:53:54;;;;;;;8.68;3.72;;;12.90;99.90;;;;;;6338700;22;20030;-82
2021/04/24 00:56:20;;;;;;;11.90;2.78;;;12.80;99.90;;;;;;6339152;22;20072;-81
2021/04/24 00:58:46;;;;;;;4.78;2.42;;;12.80;99.90;;;;;;6338504;22;20049;-81
2021/04/24 01:01:12;;;;;;;5.53;2.35;;;12.70;99.90;;;;;;6338995;22;20015;-82
2021/04/24 01:03:38;;;;;;;6.47;3.15;;;12.70;99.90;;;;;;6339687;22;20007;-82
2021/04/24 01:06:04;;;;;;;7.28;3.53;;;12.80;99.90;;;;;;6338946;22;19999;-82
2021/04/24 01:08:30;;;;;;;6.90;3.50;;;12.80;99.90;;;;;;6338838;22;20433;-81
2021/04/24 01:10:56;;;;;;;6.90;4.28;;;12.80;99.90;;;;;;6338701;22;20005;-82
2021/04/24 01:13:22;;;;;;;7.25;3.67;;;12.90;99.90;;;;;;6338747;22;20443;-82
2021/04/24 01:15:49;;;;;;;14.45;4.03;;;12.90;99.90;;;;;;6338831;22;19999;-82
2021/04/24 01:18:15;;;;;;;7.97;3.05;;;12.90;99.90;;;;;;6338550;22;20432;-81
2021/04/24 01:20:41;;;;;;;4.88;2.70;;;12.70;99.90;;;;;;6338600;22;19999;-82
2021/04/24 01:23:09;;;;;;;5.32;3.00;;;12.70;99.90;;;;;;6338465;22;20058;-82
2021/04/24 01:25:38;;;;;;;7.50;3.13;;;12.70;99.90;;;;;;6337815;22;20002;-82
2021/04/24 01:28:04;;;;;;;6.18;3.17;;;12.80;99.90;;;;;;6338883;22;20027;-81
2021/04/24 01:30:39;;;;;;;5.10;3.00;;;12.80;99.90;;;;;;6338618;22;19999;-82
2021/04/24 01:33:08;;;;;;;4.22;2.75;;;12.80;99.90;;;;;;6338958;22;20029;-82
2021/04/24 01:35:35;;;;;;;3.75;2.50;;;12.90;99.90;;;;;;6338439;22;20003;-81
2021/04/24 01:38:02;;;;;;;5.43;3.25;;;12.80;99.90;;;;;;6338488;22;20074;-81
2021/04/24 01:40:28;;;;;;;7.13;3.90;;;12.80;99.90;;;;;;6338620;22;19999;-81
2021/04/24 01:42:54;;;;;;;6.32;3.25;;;12.80;99.90;;;;;;6338704;22;20089;-81
2021/04/24 01:45:22;;;;;;;6.43;3.17;;;12.90;99.90;;;;;;6310605;22;20006;-81
2021/04/24 01:47:49;;;;;;;5.55;3.53;;;12.90;99.90;;;;;;6338453;22;20056;-81
2021/04/24 01:50:24;;;;;;;7.80;3.55;;;12.90;99.90;;;;;;6338375;22;19995;-81
2021/04/24 01:52:52;;;;;;;8.13;2.60;;;12.80;99.90;;;;;;6310821;22;20048;-82
2021/04/24 01:55:22;;;;;;;7.25;3.33;;;12.70;99.90;;;;;;6310589;22;20002;-81
2021/04/24 01:57:49;;;;;;;12.40;2.97;;;12.70;99.90;;;;;;6338141;22;19999;-82
2021/04/24 02:00:40;;;;;;;5.32;3.05;;;12.60;99.90;;;;;;6338411;22;20026;-81
2021/04/24 02:03:12;;;;;;;6.07;2.33;;;12.70;99.90;;;;;;6338363;22;20007;-82
2021/04/24 02:05:39;;;;;;;4.50;2.70;;;12.60;99.90;;;;;;6338528;22;20018;-82
2021/04/24 02:08:11;;;;;;;7.35;2.00;;;12.70;99.90;;;;;;6338208;22;20003;-82
2021/04/24 02:10:40;;;;;;;6.63;2.38;;;12.80;99.90;;;;;;6338276;22;19994;-82
2021/04/24 02:13:16;;;;;;;4.78;2.78;;;12.70;99.90;;;;;;6338194;22;20421;-77
2021/04/24 02:15:43;;;;;;;2.80;2.25;;;12.80;99.90;;;;;;6338269;22;20078;-82
2021/04/24 02:18:09;;;;;;;3.97;2.45;;;12.70;99.90;;;;;;6313046;22;19999;-81
2021/04/24 02:20:37;;;;;;;5.22;2.47;;;12.70;99.90;;;;;;6338274;22;20006;-82
2021/04/24 02:23:04;;;;;;;4.63;2.75;;;12.70;99.90;;;;;;6338156;22;20090;-82
2021/04/24 02:25:30;;;;;;;3.28;1.90;;;12.70;99.90;;;;;;6338135;22;20360;-82
2021/04/24 02:27:56;;;;;;;7.72;2.42;;;12.80;99.90;;;;;;6338310;22;20337;-80
2021/04/24 02:30:24;;;;;;;4.00;1.90;;;12.80;99.90;;;;;;6338194;22;20007;-77
2021/04/24 02:32:50;;;;;;;6.80;2.65;;;12.80;99.90;;;;;;6338266;22;20048;-82
2021/04/24 02:35:25;;;;;;;8.30;2.20;;;12.80;99.90;;;;;;6338291;22;20415;-80
2021/04/24 02:37:51;;;;;;;2.55;2.13;;;12.80;99.90;;;;;;6338203;22;20010;-81
2021/04/24 02:40:20;;;;;;;3.80;2.17;;;12.80;99.90;;;;;;6338074;22;20076;-82
2021/04/24 02:42:46;;;;;;;10.75;2.00;;;12.70;99.90;;;;;;6310267;22;20015;-82
2021/04/24 02:45:14;;;;;;;3.58;2.47;;;12.70;99.90;;;;;;6337908;22;19999;-81
2021/04/24 02:47:40;;;;;;;4.00;1.92;;;12.70;99.90;;;;;;6338292;22;20310;-80
2021/04/24 02:50:08;;;;;;;5.60;2.42;;;12.70;99.90;;;;;;6337968;22;20417;-82
2021/04/24 02:52:34;;;;;;;4.07;2.28;;;12.70;99.90;;;;;;6338017;22;19999;-81
2021/04/24 02:55:00;;;;;;;3.80;1.98;;;12.80;99.90;;;;;;6310386;22;20014;-81
2021/04/24 02:57:27;;;;;;;5.05;2.22;;;12.70;99.90;;;;;;6337540;22;20002;-80
2021/04/24 02:59:53;;;;;;;4.82;2.30;;;12.70;99.90;;;;;;6337945;22;20002;-82
2021/04/24 03:02:19;;;;;;;3.15;2.05;;;12.70;99.90;;;;;;6337714;22;20094;-80
2021/04/24 03:04:45;;;;;;;13.35;4.25;;;12.70;99.90;;;;;;6337766;22;20030;-81
2021/04/24 03:07:11;;;;;;;4.32;2.45;;;12.70;99.90;;;;;;6337980;22;20074;-81
2021/04/24 03:09:37;;;;;;;5.57;2.70;;;12.70;99.90;;;;;;6338011;22;19999;-82
2021/04/24 03:12:04;;;;;;;5.00;2.15;;;12.70;99.90;;;;;;6337833;22;20026;-82
2021/04/24 03:14:30;;;;;;;5.95;2.47;;;12.60;99.90;;;;;;6337740;22;20003;-81
2021/04/24 03:16:56;;;;;;;5.20;2.95;;;12.70;99.90;;;;;;6310117;22;20014;-82
2021/04/24 03:19:22;;;;;;;3.90;2.38;;;12.70;99.90;;;;;;6337823;22;20005;-81
2021/04/24 03:21:48;;;;;;;4.32;2.53;;;12.60;99.90;;;;;;6337714;22;20394;-80
2021/04/24 03:24:14;;;;;;;7.43;3.15;;;12.60;99.90;;;;;;6337937;22;20045;-82
2021/04/24 03:26:40;;;;;;;4.90;2.78;;;12.60;99.90;;;;;;6337829;22;20074;-81
2021/04/24 03:29:06;;;;;;;4.93;2.90;;;12.60;99.90;;;;;;6337795;22;20061;-81
2021/04/24 03:31:32;;;;;;;4.88;2.45;;;12.50;99.90;;;;;;6338492;22;20079;-76
2021/04/24 03:33:58;;;;;;;7.18;3.08;;;12.50;99.90;;;;;;6339565;22;20044;-82
2021/04/24 03:36:24;;;;;;;7.40;2.17;;;12.50;99.90;;;;;;6337867;22;19999;-80
2021/04/24 03:38:50;;;;;;;4.57;2.53;;;12.60;99.90;;;;;;6337771;22;20010;-81
2021/04/24 03:41:16;;;;;;;5.20;2.40;;;12.50;99.90;;;;;;6337481;22;20396;-82
2021/04/24 03:43:42;;;;;;;8.75;2.40;;;12.50;99.90;;;;;;6337620;22;20006;-79
2021/04/24 03:46:08;;;;;;;6.75;2.60;;;12.50;99.90;;;;;;6337632;22;19998;-82
2021/04/24 03:48:34;;;;;;;4.40;2.53;;;12.50;99.90;;;;;;6338390;22;20505;-81
2021/04/24 03:51:01;;;;;;;5.15;2.97;;;12.40;99.90;;;;;;6339354;22;20298;-79
2021/04/24 03:53:28;;;;;;;6.20;2.63;;;12.40;99.90;;;;;;6339719;22;20064;-81
2021/04/24 03:55:54;;;;;;;6.90;2.60;;;12.40;99.90;;;;;;6339514;22;20360;-81
2021/04/24 03:58:20;;;;;;;4.72;2.85;;;12.40;99.90;;;;;;6339058;22;20040;-79
2021/04/24 04:00:46;;;;;;;10.80;3.25;;;12.40;99.90;;;;;;6339237;22;20005;-81
2021/04/24 04:03:12;;;;;;;5.40;3.58;;;12.30;99.90;;;;;;6339238;22;20025;-81
2021/04/24 04:05:41;;;;;;;7.85;2.70;;;12.30;99.90;;;;;;6339472;22;20010;-80
2021/04/24 04:08:10;;;;;;;4.70;2.92;;;12.30;99.90;;;;;;6339408;22;20007;-81
2021/04/24 04:10:38;;;;;;;7.00;2.83;;;12.30;99.90;;;;;;6339137;22;20001;-81
2021/04/24 04:13:05;;;;;;;5.18;2.47;;;12.30;99.90;;;;;;6339232;22;20069;-81
2021/04/24 04:15:32;;;;;;;6.38;3.15;;;12.30;99.90;;;;;;6339141;22;20348;-80
2021/04/24 04:18:12;;;;;;;6.25;3.47;;;12.30;99.90;;;;;;6339518;22;20029;-80
2021/04/24 04:20:41;;;;;;;8.02;4.13;;;12.30;99.90;;;;;;6339134;22;20088;-81
2021/04/24 04:23:07;;;;;;;4.70;2.53;;;12.30;99.90;;;;;;6339030;22;20011;-81
2021/04/24 04:25:33;;;;;;;5.28;2.83;;;12.30;99.90;;;;;;6311348;22;20427;-79
2021/04/24 04:27:59;;;;;;;5.43;2.83;;;12.30;99.90;;;;;;6339083;22;20013;-80
2021/04/24 04:30:25;;;;;;;6.50;3.08;;;12.40;99.90;;;;;;6339034;22;20003;-82
2021/04/24 04:32:52;;;;;;;9.95;2.97;;;12.30;99.90;;;;;;6339303;22;19999;-81
2021/04/24 04:35:19;;;;;;;5.65;3.05;;;12.30;99.90;;;;;;6311472;22;20041;-82
2021/04/24 04:37:46;;;;;;;6.30;2.67;;;12.40;99.90;;;;;;6339097;22;20003;-82
2021/04/24 04:40:13;;;;;;;6.40;3.60;;;12.40;99.90;;;;;;6338991;22;20034;-81
2021/04/24 04:42:40;;;;;;;6.82;2.67;;;12.50;99.90;;;;;;6338786;22;20015;-80
2021/04/24 04:45:08;;;;;;;8.68;2.88;;;12.50;99.90;;;;;;6338997;22;20115;-81
2021/04/24 04:47:34;;;;;;;6.47;3.40;;;12.50;99.90;;;;;;6340746;22;19999;-81
2021/04/24 04:50:00;;;;;;;8.98;4.22;;;12.50;99.90;;;;;;6339284;22;20009;-78
2021/04/24 04:52:26;;;;;;;7.00;3.15;;;12.60;99.90;;;;;;6339303;22;20436;-82
2021/04/24 04:54:52;;;;;;;6.37;3.00;;;12.70;99.90;;;;;;6311313;22;20006;-82
2021/04/24 04:57:17;;;;;;;4.72;3.25;;;12.70;99.90;;;;;;6341478;22;20240;-82
2021/04/24 04:59:43;;;;;;;8.10;4.40;;;12.80;99.90;;;;;;6340199;22;20007;-82
2021/04/24 05:02:09;;;;;;;5.70;3.40;;;12.80;99.90;;;;;;6338986;22;20259;-81
2021/04/24 05:04:35;;;;;;;8.10;4.40;;;12.90;99.90;;;;;;6339828;22;19999;-82
2021/04/24 05:07:02;;;;;;;7.57;4.07;;;12.90;99.90;;;;;;6338772;22;20024;-81
2021/04/24 05:09:28;;;;;;;9.68;3.65;;;12.90;99.90;;;;;;6310933;22;20009;-82
2021/04/24 05:11:54;;;;;;;7.88;3.42;;;12.90;99.90;;;;;;6338811;22;20002;-83
2021/04/24 05:14:21;;;;;;;7.60;3.80;;;12.90;99.90;;;;;;6338485;22;20060;-82
2021/04/24 05:16:47;;;;;;;5.10;3.47;;;12.90;99.90;;;;;;6338727;22;19999;-82
2021/04/24 05:19:13;;;;;;;10.02;3.47;;;12.80;99.90;;;;;;6338696;22;19998;-80
2021/04/24 05:21:39;;;;;;;10.27;4.60;;;12.80;99.90;;;;;;6338713;22;20041;-80
2021/04/24 05:24:06;;;;;;;8.18;4.47;;;12.80;99.90;;;;;;6338548;22;20007;-82
2021/04/24 05:26:33;;;;;;;10.98;3.75;;;12.80;99.90;;;;;;6338488;22;20383;-82
2021/04/24 05:28:59;;;;;;;8.38;3.50;;;12.80;99.90;;;;;;6338598;22;20048;-82
2021/04/24 05:31:26;;;;;;;12.50;4.60;;;12.80;99.90;;;;;;6338393;22;20018;-82
2021/04/24 05:33:52;;;;;;;6.40;4.47;;;12.90;99.90;;;;;;6338448;22;20030;-81
2021/04/24 05:36:19;;;;;;;7.88;3.70;;;12.90;99.90;;;;;;6338665;22;20055;-81
2021/04/24 05:38:48;;;;;;;9.20;4.55;;;12.90;99.90;;;;;;6338445;22;20010;-82
2021/04/24 05:41:20;;;;;;;8.80;4.13;;;12.90;99.90;;;;;;6338452;22;20003;-81
2021/04/24 05:43:46;;;;;;;8.35;3.80;;;12.80;99.90;;;;;;6338456;22;20116;-81
2021/04/24 05:46:12;;;;;;;31.90;4.82;;;12.80;99.90;;;;;;6338357;22;20056;-81
2021/04/24 05:48:38;;;;;;;10.10;3.42;;;12.80;99.90;;;;;;6338660;22;20336;-81
2021/04/24 05:51:04;;;;;;;6.60;3.13;;;12.80;99.90;;;;;;6338392;22;19995;-81
2021/04/24 05:53:30;;;;;;;6.63;3.42;;;12.90;99.90;;;;;;6338356;22;20558;-81
2021/04/24 05:55:56;;;;;;;7.60;3.22;;;12.90;99.90;;;;;;6338705;22;20010;-82
2021/04/24 05:58:22;;;;;;;5.93;3.30;;;13.00;99.90;;;;;;6338121;22;20014;-81
2021/04/24 06:00:48;;;;;;;7.30;3.38;;;13.00;99.90;;;;;;6339414;22;20233;-82
2021/04/24 06:03:16;;;;;;;6.07;3.47;;;13.10;99.90;;;;;;6339915;22;20011;-82
2021/04/24 06:05:42;;;;;;;6.28;4.07;;;13.10;99.90;;;;;;6338384;22;20003;-82
2021/04/24 06:08:08;;;;;;;7.32;3.70;;;13.10;99.90;;;;;;6310426;22;20458;-81
2021/04/24 06:10:34;;;;;;;6.40;3.60;;;13.10;99.90;;;;;;6310459;22;20002;-82
2021/04/24 06:13:00;;;;;;;8.38;3.55;;;13.00;99.90;;;;;;6338123;22;20007;-81
2021/04/24 06:15:26;;;;;;;7.25;3.80;;;13.10;99.90;;;;;;6338049;22;20010;-82
2021/04/24 06:17:52;;;;;;;9.23;3.72;;;13.00;99.90;;;;;;6338136;22;20429;-82
2021/04/24 06:20:18;;;;;;;7.25;4.10;;;13.00;99.90;;;;;;6310559;22;20056;-82
2021/04/24 06:22:44;;;;;;;6.32;3.92;;;13.00;99.90;;;;;;6337933;22;20014;-82
2021/04/24 06:25:13;;;;;;;6.53;4.60;;;13.10;99.90;;;;;;6310575;22;20306;-82
2021/04/24 06:27:39;;;;;;;8.32;4.10;;;13.20;99.90;;;;;;6338211;22;20025;-82
2021/04/24 06:30:08;;;;;;;6.57;3.90;;;13.20;99.90;;;;;;6310544;22;20044;-82
2021/04/24 06:32:34;;;;;;;4.85;3.38;;;13.20;99.90;;;;;;6310225;22;20007;-80
2021/04/24 06:34:59;;;;;;;5.30;3.35;;;13.20;99.90;;;;;;6310201;22;20007;-82
2021/04/24 06:37:25;;;;;;;10.98;3.45;;;13.20;99.90;;;;;;6338019;22;20007;-81
2021/04/24 06:39:51;;;;;;;8.15;4.10;;;13.20;99.90;;;;;;6337976;22;20002;-82
2021/04/24 06:42:17;;;;;;;6.78;4.22;;;13.20;99.90;;;;;;6310476;22;20046;-82
2021/04/24 06:44:44;;;;;;;9.02;3.92;;;13.30;99.90;;;;;;6337912;22;20009;-82
2021/04/24 06:47:11;;;;;;;7.93;3.58;;;13.40;99.90;;;;;;6337950;22;20078;-81
2021/04/24 06:49:37;;;;;;;6.75;3.10;;;13.40;99.90;;;;;;6337951;22;19999;-82
2021/04/24 06:52:04;;;;;;;5.38;3.08;;;13.40;99.90;;;;;;6337967;22;20059;-82
2021/04/24 06:54:30;;;;;;;6.65;3.53;;;13.40;99.90;;;;;;6338194;22;19999;-81
2021/04/24 06:56:56;;;;;;;4.35;2.20;;;13.40;99.90;;;;;;6337807;22;20009;-78
2021/04/24 06:59:22;;;;;;;3.83;2.40;;;13.50;99.90;;;;;;6338062;22;20094;-81
2021/04/24 07:01:48;;;;;;;6.15;3.17;;;13.50;99.90;;;;;;6337798;22;21145;-82
2021/04/24 07:04:14;;;;;;;5.45;2.60;;;13.60;99.90;;;;;;6310232;22;19999;-82
2021/04/24 07:06:40;;;;;;;5.47;2.95;;;13.60;99.90;;;;;;6338471;22;20428;-82
2021/04/24 07:09:06;;;;;;;4.22;2.45;;;13.70;99.90;;;;;;6338397;22;20310;-82
2021/04/24 07:11:32;;;;;;;5.55;3.00;;;13.80;99.90;;;;;;6338110;22;20375;-81
2021/04/24 07:13:58;;;;;;;6.10;2.00;;;13.70;99.90;;;;;;6338247;22;20007;-82
2021/04/24 07:16:24;;;;;;;3.60;2.40;;;13.80;99.90;;;;;;6338870;22;20014;-82
2021/04/24 07:18:50;;;;;;;4.35;2.25;;;13.80;99.90;;;;;;6340133;22;20063;-83
2021/04/24 07:21:16;;;;;;;3.65;2.15;;;13.80;99.90;;;;;;6338913;22;20437;-82
2021/04/24 07:23:42;;;;;;;2.83;2.33;;;13.80;99.90;;;;;;6339631;22;20090;-82
2021/04/24 07:26:09;;;;;;;4.90;2.15;;;13.80;99.90;;;;;;6340229;22;20025;-83
2021/04/24 07:28:36;;;;;;;3.47;2.35;;;13.90;99.90;;;;;;6339777;22;20068;-83
2021/04/24 07:31:03;;;;;;;3.88;2.00;;;13.90;99.90;;;;;;6339653;22;19999;-79
2021/04/24 07:33:29;;;;;;;5.07;1.95;;;13.90;99.90;;;;;;6339536;22;20003;-83
2021/04/24 07:35:55;;;;;;;4.53;2.53;;;14.00;99.90;;;;;;6339994;22;20003;-82
2021/04/24 07:38:22;;;;;;;4.65;2.28;;;14.00;99.90;;;;;;6339582;22;20044;-83
2021/04/24 07:40:48;;;;;;;6.57;2.47;;;14.10;99.90;;;;;;6312554;22;20007;-83
2021/04/24 07:43:15;;;;;;;4.72;2.30;;;14.00;99.90;;;;;;6340062;22;20375;-83
2021/04/24 07:45:42;;;;;;;2.63;2.00;;;14.00;99.90;;;;;;6339697;22;20069;-83
2021/04/24 07:48:08;;;;;;;3.95;2.30;;;14.00;99.90;;;;;;6339636;22;20041;-83
2021/04/24 07:50:35;;;;;;;2.30;1.92;;;14.00;99.90;;;;;;6339283;22;20497;-81
2021/04/24 07:53:01;;;;;;;7.05;2.10;;;14.00;99.90;;;;;;6339454;22;20002;-82
2021/04/24 07:55:28;;;;;;;3.53;1.85;;;14.00;99.90;;;;;;6339492;22;20073;-82
2021/04/24 07:57:54;;;;;;;4.97;3.33;;;14.20;99.90;;;;;;6339487;22;20034;-82
2021/04/24 08:00:20;;;;;;;6.47;1.90;;;14.40;99.90;;;;;;6339662;22;20011;-83
2021/04/24 08:02:46;;;;;;;2.20;1.55;;;14.60;99.90;;;;;;6339529;22;20090;-83
2021/04/24 08:05:16;;;;;;;3.13;1.52;;;14.80;99.90;;;;;;6339466;22;20017;-82
2021/04/24 08:07:42;;;;;;;3.55;1.90;;;14.80;99.90;;;;;;6339284;22;20014;-82
2021/04/24 08:10:09;;;;;;;3.97;2.47;;;14.90;99.90;;;;;;6339628;22;20002;-84
2021/04/24 08:12:35;;;;;;;3.40;2.00;;;14.90;99.90;;;;;;6339174;22;20455;-83
2021/04/24 08:15:01;;;;;;;2.45;1.63;;;14.80;99.90;;;;;;6339195;22;19999;-82
2021/04/24 08:17:28;;;;;;;4.63;2.15;;;14.80;99.90;;;;;;6339424;22;20009;-83
2021/04/24 08:19:54;;;;;;;4.60;2.75;;;14.70;99.90;;;;;;6339210;22;19998;-83
2021/04/24 08:22:20;;;;;;;5.13;2.00;;;14.70;99.90;;;;;;6339091;22;20021;-82
2021/04/24 08:24:45;;;;;;;3.00;2.33;;;14.60;99.90;;;;;;6339617;22;19999;-82
2021/04/24 08:27:11;;;;;;;6.57;2.50;;;14.50;99.90;;;;;;6339390;22;20241;-83
2021/04/24 08:29:37;;;;;;;4.40;2.22;;;14.50;99.90;;;;;;6339348;22;20278;-79
2021/04/24 08:32:04;;;;;;;3.53;2.05;;;14.40;99.90;;;;;;6340792;22;20006;-83
2021/04/24 08:34:31;;;;;;;4.30;2.20;;;14.50;99.90;;;;;;6340518;22;20001;-83
2021/04/24 08:36:57;;;;;;;4.05;2.13;;;14.50;99.90;;;;;;6312451;22;20013;-84
2021/04/24 08:39:23;;;;;;;5.20;2.17;;;14.60;99.90;;;;;;6339229;22;20070;-83
2021/04/24 08:41:49;;;;;;;4.00;1.60;;;14.60;99.90;;;;;;6339055;22;20085;-83
2021/04/24 08:44:17;;;;;;;4.10;1.70;;;14.50;99.90;;;;;;6339089;22;19995;-83
2021/04/24 08:46:50;;;;;;;2.95;1.77;;;14.50;99.90;;;;;;6339243;22;20318;-83
2021/04/24 08:49:23;;;;;;;7.22;3.45;;;14.50;99.90;;;;;;6339047;22;20003;-83
2021/04/24 08:51:51;;;;;;;8.27;3.22;;;14.50;99.90;;;;;;6338891;22;20055;-81
2021/04/24 08:54:18;;;;;;;5.22;2.08;;;14.60;99.90;;;;;;6339231;22;20024;-79
2021/04/24 08:56:44;;;;;;;2.78;1.98;;;14.70;99.90;;;;;;6339120;22;20056;-83
2021/04/24 08:59:11;;;;;;;6.20;2.40;;;14.60;99.90;;;;;;6338851;22;20011;-83
2021/04/24 09:01:37;;;;;;;5.22;2.50;;;14.50;99.90;;;;;;6338674;22;20007;-83
2021/04/24 09:04:04;;;;;;;3.80;2.28;;;14.50;99.90;;;;;;6338763;22;20306;-83
2021/04/24 09:06:31;;;;;;;4.22;1.80;;;14.50;99.90;;;;;;6338898;22;20516;-82
2021/04/24 09:08:59;;;;;;;2.38;1.60;;;14.60;99.90;;;;;;6338871;22;20026;-82
2021/04/24 09:11:26;;;;;;;1.90;1.08;;;14.70;99.90;;;;;;6338600;22;20035;-82
2021/04/24 09:14:00;;;;;;;2.80;1.65;;;14.90;99.90;;;;;;6311306;22;20038;-82
2021/04/24 09:16:27;;;;;;;1.15;0.88;;;14.90;99.90;;;;;;6338804;22;20009;-83
2021/04/24 09:18:54;;;;;;;1.42;0.90;;;14.90;99.90;;;;;;6339012;22;20381;-83
2021/04/24 09:21:23;;;;;;;5.07;1.27;;;14.80;99.90;;;;;;6338562;22;20022;-82
2021/04/24 09:23:49;;;;;;;1.80;1.15;;;14.80;99.90;;;;;;6338662;22;20030;-82
2021/04/24 09:26:16;;;;;;;2.67;1.10;;;14.80;99.90;;;;;;6338587;22;19999;-83
2021/04/24 09:28:46;;;;;;;2.20;1.20;;;14.90;99.90;;;;;;6338841;22;20079;-83
2021/04/24 09:31:18;;;;;;;1.85;0.93;;;15.00;99.90;;;;;;6339937;22;20007;-83
2021/04/24 09:33:45;;;;;;;6.55;2.00;;;15.00;99.90;;;;;;6339696;22;20041;-83
2021/04/24 09:36:12;;;;;;;1.88;1.02;;;15.10;99.90;;;;;;6339195;22;20437;-82
2021/04/24 09:38:41;;;;;;;3.22;1.23;;;15.20;99.90;;;;;;6338415;22;20014;-82
2021/04/24 09:41:09;;;;;;;2.55;1.63;;;15.30;99.90;;;;;;6338504;22;20011;-77
2021/04/24 09:44:07;;;;;;;2.55;1.10;;;15.30;99.90;;;;;;6338527;22;20006;-83
2021/04/24 09:46:54;;;;;;;2.28;1.55;;;15.10;99.90;;;;;;6340281;22;19994;-83
2021/04/24 09:49:21;;;;;;;2.67;1.38;;;15.10;99.90;;;;;;6341631;22;19999;-83
2021/04/24 09:51:51;;;;;;;2.90;1.30;;;15.10;99.90;;;;;;6311003;22;20089;-83
2021/04/24 09:54:18;;;;;;;3.70;1.33;;;15.10;99.90;;;;;;6338238;22;19998;-82
2021/04/24 09:57:05;;;;;;;3.25;1.30;;;15.10;99.90;;;;;;6338307;22;20003;-77
2021/04/24 09:59:31;;;;;;;1.98;1.10;;;15.10;99.90;;;;;;6338291;22;20025;-82
2021/04/24 10:02:02;;;;;;;2.63;1.50;;;15.20;99.90;;;;;;6338225;22;20483;-82
2021/04/24 10:04:30;;;;;;;3.17;1.42;;;15.20;99.90;;;;;;6338406;22;20003;-82
2021/04/24 10:06:56;;;;;;;4.05;1.33;;;15.20;99.90;;;;;;6338298;22;19995;-83
2021/04/24 10:09:26;;;;;;;2.67;1.83;;;15.10;99.90;;;;;;6338482;22;20026;-82
2021/04/24 10:12:02;;;;;;;4.78;1.63;;;15.10;99.90;;;;;;6338234;22;20038;-82
2021/04/24 10:14:45;;;;;;;5.57;1.58;;;15.00;99.90;;;;;;6338093;22;19998;-81
2021/04/24 10:17:18;;;;;;;5.03;1.92;;;14.90;99.90;;;;;;6338301;22;20003;-82
2021/04/24 10:19:46;;;;;;;1.40;1.20;;;14.90;99.90;;;;;;6338310;22;20381;-83
2021/04/24 10:22:18;;;;;;;3.13;1.90;;;14.70;99.90;;;;;;6310365;22;20528;-83
2021/04/24 10:24:44;;;;;;;4.50;1.73;;;14.60;99.90;;;;;;6338340;22;20433;-83
2021/04/24 10:27:12;;;;;;;3.22;1.50;;;14.60;99.90;;;;;;6338173;22;19999;-83
2021/04/24 10:29:39;;;;;;;2.95;1.80;;;14.70;99.90;;;;;;6338218;22;20006;-82
2021/04/24 10:32:05;;;;;;;3.78;1.45;;;14.70;99.90;;;;;;6338356;22;20073;-83
2021/04/24 10:34:31;;;;;;;5.18;1.70;;;14.80;99.90;;;;;;6338228;22;19998;-79
2021/04/24 10:36:57;;;;;;;1.67;1.10;;;14.80;99.90;;;;;;6338274;22;20059;-83
2021/04/24 10:39:28;;;;;;;3.25;1.60;;;14.90;99.90;;;;;;6338222;22;20007;-83
2021/04/24 10:41:54;;;;;;;12.75;2.00;;;14.90;99.90;;;;;;6310493;22;20015;-83
2021/04/24 10:44:21;;;;;;;3.37;1.37;;;14.90;99.90;;;;;;6338076;22;20010;-83
2021/04/24 10:46:52;;;;;;;2.33;1.42;;;14.80;99.90;;;;;;6338166;22;20433;-83
2021/04/24 10:49:29;;;;;;;5.75;1.63;;;14.70;99.90;;;;;;6338228;22;20026;-82
2021/04/24 10:52:20;;;;;;;3.10;1.70;;;14.70;99.90;;;;;;6310372;22;20081;-83
2021/04/24 10:55:23;;;;;;;3.40;1.27;;;14.70;99.90;;;;;;6338244;22;19999;-82
2021/04/24 10:58:00;;;;;;;1.85;1.60;;;14.60;99.90;;;;;;6338826;22;20011;-83
2021/04/24 11:00:33;;;;;;;4.28;2.22;;;14.70;99.90;;;;;;6342162;22;20081;-82
2021/04/24 11:02:59;;;;;;;;;;;14.80;99.90;;;;;;6351056;22;20018;-82
2021/04/24 11:05:30;;;;;;;6.20;2.45;;;14.70;99.90;;;;;;6340247;22;20322;-80
2021/04/24 11:08:20;;;;;;;2.38;1.67;;;14.60;99.90;;;;;;6340040;22;20006;-83
2021/04/24 11:11:21;;;;;;;2.80;1.55;;;14.40;99.90;;;;;;6316562;22;20006;-83
2021/04/24 11:13:53;;;;;;;4.82;1.58;;;14.30;99.90;;;;;;6184308;23;20013;-78
2021/04/24 11:16:20;;;;;;;8.52;2.05;;;14.20;99.90;;;;;;6314402;22;19998;-78
2021/04/24 11:18:48;;;;;;;4.38;2.17;;;14.20;99.90;;;;;;6340079;22;20425;-82
2021/04/24 11:21:17;;;;;;;2.70;1.73;;;14.30;99.90;;;;;;6339618;22;20003;-83
2021/04/24 11:23:46;;;;;;;3.78;2.15;;;14.30;99.90;;;;;;6339973;22;20007;-83
2021/04/24 11:26:21;;;;;;;3.80;1.95;;;14.40;99.90;;;;;;6286706;22;19999;-83
2021/04/24 11:29:11;;;;;;;4.13;1.90;;;14.40;99.90;;;;;;6339645;22;20003;-84
2021/04/24 11:31:49;;;;;;;3.92;2.13;;;14.30;99.90;;;;;;6339693;22;20003;-83
2021/04/24 11:34:25;;;;;;;6.82;2.08;;;14.40;99.90;;;;;;6339678;22;20079;-82
2021/04/24 11:37:21;;;;;;;4.35;1.80;;;14.40;99.90;;;;;;6339658;22;20501;-83
2021/04/24 11:40:10;;;;;;;5.28;2.30;;;14.50;99.90;;;;;;6339547;22;20002;-83
2021/04/24 11:42:49;;;;;;;4.35;2.28;;;14.50;99.90;;;;;;6339282;22;20018;-83
2021/04/24 11:45:35;;;;;;;2.67;1.60;;;14.60;99.90;;;;;;6339666;22;19999;-82
2021/04/24 11:48:01;;;;;;;3.13;1.50;;;14.60;99.90;;;;;;6339452;22;19999;-83
2021/04/24 11:50:37;;;;;;;2.53;1.38;;;14.60;99.90;;;;;;6312382;22;20010;-83
2021/04/24 11:53:03;;;;;;;4.05;1.88;;;14.60;99.90;;;;;;6339563;22;20081;-83
2021/04/24 11:55:29;;;;;;;2.28;1.38;;;14.50;99.90;;;;;;6311941;22;20064;-83
2021/04/24 11:58:12;;;;;;;3.08;1.20;;;14.50;99.90;;;;;;6339282;22;20463;-83
2021/04/24 12:00:39;;;;;;;2.35;1.35;;;14.50;99.90;;;;;;6339359;22;20436;-78
2021/04/24 12:03:06;;;;;;;1.73;0.98;;;14.40;99.90;;;;;;6339463;22;20013;-77
2021/04/24 12:05:44;;;;;;;4.43;1.48;;;14.40;99.90;;;;;;6339348;22;20082;-81
2021/04/24 12:08:19;;;;;;;6.82;1.73;;;14.40;99.90;;;;;;6339269;22;20023;-82
2021/04/24 12:10:46;;;;;;;3.63;2.17;;;14.40;99.90;;;;;;6338990;22;20417;-81
2021/04/24 12:13:12;;;;;;;3.60;2.17;;;14.40;99.90;;;;;;6339564;22;19998;-83
2021/04/24 12:15:44;;;;;;;5.18;2.00;;;14.30;99.90;;;;;;6313997;22;20328;-80
2021/04/24 12:18:10;;;;;;;3.85;2.28;;;14.30;99.90;;;;;;6347498;22;19995;-82
2021/04/24 12:20:39;;;;;;;7.50;2.80;;;14.30;99.90;;;;;;6339466;22;20055;-83
2021/04/24 12:23:09;;;;;;;4.85;2.67;;;14.30;99.90;;;;;;6339316;22;20010;-83
2021/04/24 12:25:37;;;;;;;5.68;2.72;;;14.40;99.90;;;;;;6339202;22;20029;-83
2021/04/24 12:28:05;;;;;;;7.07;3.22;;;14.40;99.90;;;;;;6339102;22;20002;-80
2021/04/24 12:30:32;;;;;;;8.65;3.08;;;14.40;99.90;;;;;;6339267;22;20005;-78
2021/04/24 12:33:06;;;;;;;5.32;2.60;;;14.40;99.90;;;;;;6312117;22;19999;-80
2021/04/24 12:35:41;;;;;;;5.80;3.38;;;14.50;99.90;;;;;;6339429;22;20026;-78
2021/04/24 12:38:18;;;;;;;20.00;4.35;;;14.60;99.90;;;;;;6338956;22;20010;-82
2021/04/24 12:40:53;;;;;;;5.05;2.97;;;14.60;99.90;;;;;;6338937;22;20299;-82
2021/04/24 12:43:23;;;;;;;10.00;4.35;;;14.70;99.90;;;;;;6338892;22;20403;-82
2021/04/24 12:45:52;;;;;;;10.82;3.70;;;14.70;99.90;;;;;;6338981;22;20351;-81
2021/04/24 12:48:23;;;;;;;7.72;2.67;;;14.80;99.90;;;;;;6338966;22;20010;-83
2021/04/24 12:50:52;;;;;;;6.25;2.97;;;14.80;99.90;;;;;;6338984;22;20001;-82